Time;durP1;ratioP1;P1;durP2;ratioP2;P2;SDS_P1;SDS_P2;PMS_P1;PMS_P2;Temp;Humidity;BMP_temperature;BMP_pressure;BME280_temperature;BME280_humidity;BME280_pressure;Samples;Min_cycle;Max_cycle;Signal;HPM_P1;HPM_P2
2021/05/29 00:00:49;;;;;;;58.87;3.43;;;11.60;1.00;;;;;;4995487;28;20549;-67
2021/05/29 00:03:16;;;;;;;58.10;3.10;;;11.60;1.00;;;;;;4995823;28;20533;-67
2021/05/29 00:05:44;;;;;;;57.77;2.60;;;11.60;1.00;;;;;;4995589;28;20454;-67
2021/05/29 00:08:11;;;;;;;58.40;3.50;;;11.60;1.00;;;;;;4995214;28;20554;-67
2021/05/29 00:10:39;;;;;;;57.83;2.63;;;11.60;1.00;;;;;;4995422;28;20541;-67
2021/05/29 00:13:06;;;;;;;57.97;2.80;;;11.60;1.00;;;;;;4995152;28;20482;-67
2021/05/29 00:15:33;;;;;;;58.10;3.10;;;11.60;1.00;;;;;;4995469;28;20868;-67
2021/05/29 00:18:00;;;;;;;58.10;2.60;;;11.60;1.00;;;;;;4994959;28;20994;-67
2021/05/29 00:20:26;;;;;;;58.60;3.30;;;11.60;1.00;;;;;;4995271;28;20446;-67
2021/05/29 00:22:53;;;;;;;57.90;2.70;;;11.60;1.00;;;;;;4994263;28;20455;-67
2021/05/29 00:25:20;;;;;;;58.17;3.20;;;11.60;1.00;;;;;;4995085;28;20472;-68
2021/05/29 00:27:46;;;;;;;58.30;3.30;;;11.60;1.00;;;;;;4995089;28;20561;-67
2021/05/29 00:30:14;;;;;;;57.73;2.60;;;11.50;1.00;;;;;;4995148;28;20887;-67
2021/05/29 00:32:41;;;;;;;57.60;2.60;;;11.50;1.00;;;;;;4994975;28;20602;-68
2021/05/29 00:35:09;;;;;;;57.70;2.53;;;11.50;1.00;;;;;;4994968;28;20897;-67
2021/05/29 00:37:36;;;;;;;58.27;3.40;;;11.40;1.00;;;;;;4994673;28;20478;-67
2021/05/29 00:40:05;;;;;;;57.83;2.87;;;11.50;1.00;;;;;;4994758;28;20541;-67
2021/05/29 00:42:31;;;;;;;57.97;3.07;;;11.50;1.00;;;;;;4995110;28;20534;-68
2021/05/29 00:44:58;;;;;;;57.67;2.73;;;11.40;1.00;;;;;;4995178;28;20864;-67
2021/05/29 00:47:26;;;;;;;57.93;3.20;;;11.40;1.00;;;;;;4994613;28;20592;-67
2021/05/29 00:49:54;;;;;;;57.80;2.70;;;11.40;1.00;;;;;;4994779;28;20450;-67
2021/05/29 00:52:23;;;;;;;58.20;3.00;;;11.40;1.00;;;;;;4994632;28;20455;-67
2021/05/29 00:54:50;;;;;;;57.57;2.83;;;11.40;1.00;;;;;;4994534;28;20533;-67
2021/05/29 00:57:18;;;;;;;57.43;2.60;;;11.40;1.00;;;;;;4994406;28;20558;-67
2021/05/29 00:59:45;;;;;;;57.47;2.50;;;11.40;1.00;;;;;;4994409;28;20545;-67
2021/05/29 01:02:13;;;;;;;58.47;3.07;;;11.30;1.00;;;;;;4995042;28;20454;-67
2021/05/29 01:04:40;;;;;;;58.00;3.30;;;11.30;1.00;;;;;;4994471;28;20842;-67
2021/05/29 01:07:10;;;;;;;58.10;2.80;;;11.30;1.00;;;;;;4993906;28;20502;-67
2021/05/29 01:09:37;;;;;;;57.70;2.50;;;11.20;1.00;;;;;;4994638;28;20443;-67
2021/05/29 01:12:04;;;;;;;57.80;2.90;;;11.20;1.00;;;;;;4994443;28;20457;-67
2021/05/29 01:14:32;;;;;;;57.67;3.00;;;11.10;1.00;;;;;;4994320;28;20589;-67
2021/05/29 01:17:01;;;;;;;57.90;3.10;;;11.10;1.00;;;;;;4993976;28;20478;-67
2021/05/29 01:19:28;;;;;;;58.07;2.87;;;11.10;1.00;;;;;;4994065;28;20482;-67
2021/05/29 01:21:55;;;;;;;57.97;3.10;;;11.10;1.00;;;;;;4994260;28;20457;-67
2021/05/29 01:24:23;;;;;;;57.90;3.03;;;11.00;1.00;;;;;;4994215;28;20443;-67
2021/05/29 01:26:51;;;;;;;63.60;3.50;;;11.00;1.00;;;;;;4993868;28;20479;-67
2021/05/29 01:29:18;;;;;;;57.80;2.70;;;11.00;1.00;;;;;;4993875;28;20541;-68
2021/05/29 01:31:48;;;;;;;58.17;3.00;;;11.00;1.00;;;;;;4993979;28;20887;-67
2021/05/29 01:34:15;;;;;;;57.90;3.50;;;11.00;1.00;;;;;;4993674;28;20485;-67
2021/05/29 01:36:42;;;;;;;57.67;2.80;;;11.00;1.00;;;;;;4993526;28;20454;-68
2021/05/29 01:39:11;;;;;;;60.27;3.33;;;11.00;1.00;;;;;;4993866;28;20478;-67
2021/05/29 01:41:38;;;;;;;58.07;2.80;;;11.00;1.00;;;;;;4993831;28;20451;-67
2021/05/29 01:44:08;;;;;;;58.80;3.30;;;11.00;1.00;;;;;;4993678;28;20533;-68
2021/05/29 01:46:35;;;;;;;58.30;3.17;;;11.00;1.00;;;;;;4993492;28;20991;-68
2021/05/29 01:49:01;;;;;;;57.80;2.80;;;11.00;1.00;;;;;;4993466;28;20541;-67
2021/05/29 01:51:27;;;;;;;57.87;2.70;;;11.00;1.00;;;;;;4993731;28;20547;-68
2021/05/29 01:53:55;;;;;;;58.77;3.13;;;11.00;1.00;;;;;;4993626;28;20860;-67
2021/05/29 01:56:21;;;;;;;59.07;3.40;;;10.90;1.00;;;;;;4993211;28;21026;-67
2021/05/29 01:58:48;;;;;;;57.73;2.90;;;10.90;1.00;;;;;;4993263;28;20473;-67
2021/05/29 02:01:16;;;;;;;57.67;2.70;;;10.90;1.00;;;;;;4993266;28;20477;-67
2021/05/29 02:03:44;;;;;;;57.77;3.10;;;10.90;1.00;;;;;;4993277;28;20443;-67
2021/05/29 02:06:11;;;;;;;58.00;3.40;;;10.90;1.00;;;;;;4993320;28;20509;-67
2021/05/29 02:08:38;;;;;;;58.13;3.10;;;10.90;1.00;;;;;;4993039;28;20970;-67
2021/05/29 02:11:05;;;;;;;57.97;2.97;;;10.90;1.00;;;;;;4993212;28;20540;-67
2021/05/29 02:13:34;;;;;;;58.30;3.33;;;10.90;1.00;;;;;;4993213;28;20621;-67
2021/05/29 02:16:03;;;;;;;57.80;3.00;;;10.90;1.00;;;;;;4993019;28;20465;-67
2021/05/29 02:18:30;;;;;;;57.67;2.60;;;10.90;1.00;;;;;;4992644;28;21010;-67
2021/05/29 02:20:58;;;;;;;58.00;2.97;;;10.80;1.00;;;;;;4993127;28;20501;-67
2021/05/29 02:23:27;;;;;;;57.77;2.87;;;10.80;1.00;;;;;;4993119;28;20451;-67
2021/05/29 02:25:56;;;;;;;58.20;2.97;;;10.80;1.00;;;;;;4993146;28;20497;-67
2021/05/29 02:28:23;;;;;;;57.67;3.00;;;10.70;1.00;;;;;;4992548;28;20889;-67
2021/05/29 02:30:51;;;;;;;57.63;2.50;;;10.50;1.00;;;;;;4992930;28;20754;-67
2021/05/29 02:33:19;;;;;;;57.73;2.63;;;10.40;1.00;;;;;;4992988;28;20450;-67
2021/05/29 02:35:45;;;;;;;59.47;3.50;;;10.40;1.00;;;;;;4992818;28;20446;-67
2021/05/29 02:38:12;;;;;;;58.20;3.20;;;10.30;1.00;;;;;;4992666;28;20565;-67
2021/05/29 02:40:38;;;;;;;58.40;3.10;;;10.30;1.00;;;;;;4992723;28;20537;-67
2021/05/29 02:43:05;;;;;;;58.30;2.93;;;10.30;1.00;;;;;;4992549;28;20465;-66
2021/05/29 02:45:31;;;;;;;57.97;2.90;;;10.20;1.00;;;;;;4992185;28;20449;-67
2021/05/29 02:47:58;;;;;;;58.20;3.40;;;10.60;1.00;;;;;;4992693;28;20505;-67
2021/05/29 02:50:26;;;;;;;57.80;2.90;;;10.10;1.00;;;;;;4992641;28;20486;-66
2021/05/29 02:52:52;;;;;;;57.70;2.80;;;10.00;1.00;;;;;;4992612;28;20446;-66
2021/05/29 02:55:22;;;;;;;58.00;2.80;;;10.00;1.00;;;;;;4992416;28;20895;-67
2021/05/29 02:57:49;;;;;;;57.90;2.40;;;9.90;1.00;;;;;;4992163;28;21051;-66
2021/05/29 03:00:17;;;;;;;59.83;6.60;;;9.90;1.00;;;;;;4992345;28;20468;-67
2021/05/29 03:02:43;;;;;;;121.73;81.63;;;9.90;1.00;;;;;;4992615;28;20492;-66
2021/05/29 03:05:10;;;;;;;58.40;2.83;;;9.90;1.00;;;;;;4992530;28;20479;-67
2021/05/29 03:07:38;;;;;;;57.87;3.00;;;9.80;1.00;;;;;;4992242;28;20480;-67
2021/05/29 03:10:06;;;;;;;84.77;19.03;;;9.80;1.00;;;;;;4992405;28;21002;-68
2021/05/29 03:12:35;;;;;;;128.37;7.73;;;10.00;1.00;;;;;;4992620;28;20893;-67
2021/05/29 03:15:04;;;;;;;78.87;6.73;;;9.80;1.00;;;;;;4992537;28;20489;-67
2021/05/29 03:17:30;;;;;;;66.50;6.50;;;9.70;1.00;;;;;;4992081;28;20509;-68
2021/05/29 03:19:57;;;;;;;63.57;6.73;;;9.70;1.00;;;;;;4992297;28;20969;-66
2021/05/29 03:22:23;;;;;;;67.27;6.70;;;9.60;1.00;;;;;;4992507;28;20494;-67
2021/05/29 03:24:50;;;;;;;84.43;6.57;;;9.60;1.00;;;;;;4992504;28;20485;-67
2021/05/29 03:27:18;;;;;;;63.47;7.13;;;9.60;1.00;;;;;;4992267;28;20887;-67
2021/05/29 03:29:45;;;;;;;75.30;5.17;;;9.60;1.00;;;;;;4992152;28;20461;-67
2021/05/29 03:32:11;;;;;;;71.77;5.07;;;9.60;1.00;;;;;;4992125;28;20540;-67
2021/05/29 03:34:38;;;;;;;60.70;4.83;;;9.60;1.00;;;;;;4992084;28;20581;-67
2021/05/29 03:37:05;;;;;;;62.00;4.57;;;9.50;1.00;;;;;;4991772;28;20920;-67
2021/05/29 03:39:31;;;;;;;61.97;4.60;;;9.90;1.00;;;;;;4992089;28;20454;-67
2021/05/29 03:41:59;;;;;;;62.90;3.97;;;9.50;1.00;;;;;;4992276;28;20486;-67
2021/05/29 03:44:25;;;;;;;59.00;3.17;;;9.40;1.00;;;;;;4992118;28;20559;-67
2021/05/29 03:46:51;;;;;;;58.47;3.10;;;9.50;1.00;;;;;;4991939;28;20565;-66
2021/05/29 03:49:18;;;;;;;58.77;3.60;;;9.40;1.00;;;;;;4992025;28;20503;-66
2021/05/29 03:51:44;;;;;;;58.90;3.10;;;9.70;1.00;;;;;;4991934;28;20487;-67
2021/05/29 03:54:10;;;;;;;60.10;3.60;;;9.30;1.00;;;;;;4992164;28;20477;-67
2021/05/29 03:56:37;;;;;;;58.33;3.60;;;9.30;1.00;;;;;;4991920;28;20481;-67
2021/05/29 03:59:04;;;;;;;60.10;4.13;;;9.40;1.00;;;;;;4994661;28;20541;-67
2021/05/29 04:01:31;;;;;;;58.80;3.67;;;9.40;1.00;;;;;;4995598;28;20957;-67
2021/05/29 04:03:57;;;;;;;59.60;3.87;;;9.40;1.00;;;;;;4995447;28;20488;-67
2021/05/29 04:06:24;;;;;;;58.60;3.17;;;9.40;1.00;;;;;;4995275;28;20826;-67
2021/05/29 04:08:51;;;;;;;59.20;3.20;;;9.40;1.00;;;;;;4995546;28;20560;-67
2021/05/29 04:11:17;;;;;;;58.60;2.93;;;9.40;1.00;;;;;;4995573;28;20533;-67
2021/05/29 04:13:44;;;;;;;57.97;2.77;;;9.40;1.00;;;;;;4995512;28;20491;-67
2021/05/29 04:16:11;;;;;;;57.60;2.37;;;9.40;1.00;;;;;;4995084;28;20450;-67
2021/05/29 04:18:38;;;;;;;58.17;3.40;;;9.40;1.00;;;;;;4995122;28;20560;-68
2021/05/29 04:21:05;;;;;;;58.30;3.10;;;9.40;1.00;;;;;;4995217;28;20450;-67
2021/05/29 04:23:32;;;;;;;57.97;2.50;;;9.30;1.00;;;;;;4995103;28;21001;-68
2021/05/29 04:25:58;;;;;;;57.97;2.60;;;9.30;1.00;;;;;;4995226;28;20863;-65
2021/05/29 04:28:24;;;;;;;58.07;2.80;;;9.30;1.00;;;;;;4995004;28;20862;-67
2021/05/29 04:30:50;;;;;;;58.00;2.60;;;9.30;1.00;;;;;;4994984;28;20461;-66
2021/05/29 04:33:18;;;;;;;57.80;2.50;;;9.80;1.00;;;;;;4994957;28;20448;-67
2021/05/29 04:35:44;;;;;;;57.83;2.40;;;9.40;1.00;;;;;;4994914;28;20458;-67
2021/05/29 04:38:10;;;;;;;57.77;2.40;;;9.40;1.00;;;;;;4994884;28;20509;-67
2021/05/29 04:40:37;;;;;;;57.83;2.60;;;9.50;1.00;;;;;;4995041;28;20874;-67
2021/05/29 04:43:03;;;;;;;57.83;2.70;;;9.40;1.00;;;;;;4994967;28;20486;-67
2021/05/29 04:45:29;;;;;;;57.77;2.43;;;10.00;1.00;;;;;;4994841;28;20584;-67
2021/05/29 04:47:56;;;;;;;57.67;2.40;;;9.50;1.00;;;;;;4994360;28;20500;-67
2021/05/29 04:50:24;;;;;;;57.87;2.47;;;9.90;1.00;;;;;;4994866;28;20493;-67
2021/05/29 04:52:51;;;;;;;57.87;2.33;;;10.10;1.00;;;;;;4994848;28;20542;-67
2021/05/29 04:55:18;;;;;;;57.43;2.40;;;9.60;1.00;;;;;;4994981;28;20446;-67
2021/05/29 04:57:45;;;;;;;57.67;2.33;;;9.60;1.00;;;;;;4994735;28;20565;-67
2021/05/29 05:00:14;;;;;;;57.63;2.27;;;9.60;1.00;;;;;;4994544;28;20557;-67
2021/05/29 05:02:41;;;;;;;57.57;2.30;;;9.60;1.00;;;;;;4994324;28;20990;-67
2021/05/29 05:05:08;;;;;;;57.60;2.30;;;9.70;1.00;;;;;;4994612;28;20493;-66
2021/05/29 05:07:36;;;;;;;57.60;2.30;;;9.70;1.00;;;;;;4994214;28;20561;-67
2021/05/29 05:10:05;;;;;;;58.00;2.70;;;9.80;1.00;;;;;;4993826;28;20493;-67
2021/05/29 05:12:32;;;;;;;57.40;2.23;;;9.80;1.00;;;;;;4994261;28;20460;-67
2021/05/29 05:14:58;;;;;;;57.77;2.40;;;9.90;1.00;;;;;;4994247;28;20534;-66
2021/05/29 05:17:24;;;;;;;57.57;2.20;;;10.40;1.00;;;;;;4994036;28;20564;-67
2021/05/29 05:19:51;;;;;;;57.67;2.30;;;10.30;1.00;;;;;;4994312;28;20541;-67
2021/05/29 05:22:17;;;;;;;57.53;2.50;;;10.10;1.00;;;;;;4994198;28;20457;-67
2021/05/29 05:24:44;;;;;;;57.53;2.17;;;10.20;1.00;;;;;;4994015;28;20584;-66
2021/05/29 05:27:10;;;;;;;57.47;2.40;;;10.60;1.00;;;;;;4993781;28;20470;-67
2021/05/29 05:29:37;;;;;;;57.60;2.30;;;10.20;1.00;;;;;;4993855;28;20544;-67
2021/05/29 05:32:04;;;;;;;57.63;2.30;;;10.20;1.00;;;;;;4994114;28;20504;-66
2021/05/29 05:34:30;;;;;;;57.47;2.40;;;10.30;1.00;;;;;;4994072;28;20940;-67
2021/05/29 05:36:58;;;;;;;57.53;2.33;;;10.40;1.00;;;;;;4993712;28;20561;-66
2021/05/29 05:39:24;;;;;;;57.33;2.33;;;10.40;1.00;;;;;;4993930;28;20453;-67
2021/05/29 05:41:51;;;;;;;57.47;2.20;;;10.40;1.00;;;;;;4993841;28;20543;-66
2021/05/29 05:44:18;;;;;;;57.47;2.37;;;10.70;1.00;;;;;;4993518;28;20571;-67
2021/05/29 05:46:44;;;;;;;57.50;2.40;;;10.60;1.00;;;;;;4993533;28;20486;-67
2021/05/29 05:49:10;;;;;;;57.50;2.37;;;11.00;1.00;;;;;;4993699;28;20549;-66
2021/05/29 05:51:37;;;;;;;57.50;2.37;;;10.60;1.00;;;;;;4993542;28;20899;-67
2021/05/29 05:54:04;;;;;;;57.47;2.23;;;10.50;1.00;;;;;;4993704;28;20480;-67
2021/05/29 05:56:30;;;;;;;57.47;2.37;;;10.60;1.00;;;;;;4993687;28;20458;-67
2021/05/29 05:58:58;;;;;;;57.57;2.30;;;10.70;1.00;;;;;;4993103;28;20536;-67
2021/05/29 06:01:26;;;;;;;57.67;2.40;;;10.90;1.00;;;;;;4993284;28;20504;-67
2021/05/29 06:03:52;;;;;;;57.37;2.40;;;10.90;1.00;;;;;;4993388;28;20486;-67
2021/05/29 06:06:19;;;;;;;57.47;2.40;;;11.00;1.00;;;;;;4993355;28;20453;-67
2021/05/29 06:08:45;;;;;;;57.67;2.40;;;11.20;1.00;;;;;;4993165;28;20477;-66
2021/05/29 06:11:11;;;;;;;57.57;2.40;;;11.30;1.00;;;;;;4993193;28;20454;-67
2021/05/29 06:19:13;;;;;;;57.63;2.57;;;11.50;1.00;;;;;;4993072;28;20481;-67
2021/05/29 06:21:44;;;;;;;57.27;2.27;;;11.20;1.00;;;;;;4992305;28;20951;-67
2021/05/29 06:24:13;;;;;;;57.50;2.43;;;11.30;1.00;;;;;;4993219;28;20541;-67
2021/05/29 06:26:39;;;;;;;57.47;2.40;;;11.40;1.00;;;;;;4992667;28;20870;-67
2021/05/29 06:29:06;;;;;;;57.60;2.53;;;11.50;1.00;;;;;;4993017;28;20516;-66
2021/05/29 06:31:33;;;;;;;57.40;2.53;;;11.50;1.00;;;;;;4992786;28;20450;-66
2021/05/29 06:33:59;;;;;;;57.47;2.47;;;11.60;1.00;;;;;;4992910;28;20479;-67
2021/05/29 06:36:26;;;;;;;57.57;2.43;;;11.60;1.00;;;;;;4992463;28;20538;-67
2021/05/29 06:38:52;;;;;;;57.70;2.43;;;11.90;1.00;;;;;;4992756;28;20470;-67
2021/05/29 06:41:19;;;;;;;57.27;2.30;;;12.30;1.00;;;;;;4992871;28;20501;-67
2021/05/29 06:43:45;;;;;;;57.37;2.10;;;12.40;1.00;;;;;;4992778;28;20616;-67
2021/05/29 06:46:11;;;;;;;57.37;2.30;;;12.10;1.00;;;;;;4992524;28;20803;-67
2021/05/29 06:48:38;;;;;;;57.60;2.37;;;12.20;1.00;;;;;;4993020;28;20842;-68
2021/05/29 06:51:05;;;;;;;57.50;2.30;;;12.30;1.00;;;;;;4993078;28;20455;-67
2021/05/29 06:53:35;;;;;;;57.47;2.30;;;12.50;1.00;;;;;;4992773;28;20454;-67
2021/05/29 06:58:50;;;;;;;57.80;2.50;;;12.60;1.00;;;;;;4983331;28;20447;-67
2021/05/29 07:01:17;;;;;;;57.50;2.40;;;12.80;1.00;;;;;;4992660;28;20533;-67
2021/05/29 07:03:44;;;;;;;57.43;2.30;;;12.80;1.00;;;;;;4993226;28;20451;-67
2021/05/29 07:06:11;;;;;;;57.20;2.23;;;13.00;1.00;;;;;;4992897;28;20442;-67
2021/05/29 07:08:38;;;;;;;57.33;2.30;;;13.10;1.00;;;;;;4993094;28;20839;-67
2021/05/29 07:11:04;;;;;;;57.43;2.40;;;13.50;1.00;;;;;;4993080;28;20454;-68
2021/05/29 07:13:31;;;;;;;57.50;2.43;;;13.30;1.00;;;;;;4993149;28;20885;-67
2021/05/29 07:15:57;;;;;;;57.33;2.37;;;13.50;1.00;;;;;;4992665;28;20590;-68
2021/05/29 07:18:28;;;;;;;57.47;2.20;;;13.40;1.00;;;;;;4992423;28;20566;-67
2021/05/29 07:20:55;;;;;;;57.57;2.50;;;13.60;1.00;;;;;;4992553;28;20478;-67
2021/05/29 07:23:22;;;;;;;57.47;2.20;;;13.80;1.00;;;;;;4992390;28;20454;-67
2021/05/29 07:25:48;;;;;;;57.50;2.07;;;13.90;1.00;;;;;;4992395;28;20955;-67
2021/05/29 07:28:16;;;;;;;57.47;2.20;;;14.00;1.00;;;;;;4991918;28;20475;-67
2021/05/29 07:30:42;;;;;;;57.43;2.20;;;14.00;1.00;;;;;;4992674;28;20455;-67
2021/05/29 07:33:09;;;;;;;57.50;2.20;;;14.10;1.00;;;;;;4995456;28;20459;-67
2021/05/29 07:35:35;;;;;;;57.40;2.27;;;14.20;1.00;;;;;;4996024;28;20522;-67
2021/05/29 07:38:03;;;;;;;57.27;2.30;;;14.20;1.00;;;;;;4996071;28;20596;-68
2021/05/29 07:40:29;;;;;;;57.33;2.10;;;14.30;1.00;;;;;;4995959;28;20549;-67
2021/05/29 07:42:56;;;;;;;57.33;2.23;;;14.40;1.00;;;;;;4995892;28;20547;-67
2021/05/29 07:45:22;;;;;;;57.70;2.63;;;14.60;1.00;;;;;;4996052;28;20488;-67
2021/05/29 07:47:48;;;;;;;57.37;2.20;;;15.10;1.00;;;;;;4995773;28;20554;-67
2021/05/29 07:50:15;;;;;;;57.50;2.20;;;15.00;1.00;;;;;;4995860;28;20479;-67
2021/05/29 07:52:43;;;;;;;57.17;2.10;;;14.90;1.00;;;;;;4995672;28;20455;-67
2021/05/29 07:55:12;;;;;;;57.33;2.20;;;15.00;1.00;;;;;;4995712;28;20447;-67
2021/05/29 07:57:38;;;;;;;57.37;2.20;;;15.20;1.00;;;;;;4995209;28;20475;-67
2021/05/29 08:00:09;;;;;;;56.87;2.27;;;15.20;1.00;;;;;;4995437;28;20467;-67
2021/05/29 08:02:35;;;;;;;56.97;2.10;;;15.30;1.00;;;;;;4995841;28;20460;-67
2021/05/29 08:05:01;;;;;;;57.27;2.07;;;15.40;1.00;;;;;;4995692;28;20497;-67
2021/05/29 08:07:28;;;;;;;57.27;2.10;;;15.50;1.00;;;;;;4995371;28;20475;-68
2021/05/29 08:09:55;;;;;;;57.50;2.17;;;15.70;1.00;;;;;;4995395;28;20543;-67
2021/05/29 08:12:23;;;;;;;57.57;2.20;;;15.80;1.00;;;;;;4995374;28;20840;-67
2021/05/29 08:14:49;;;;;;;57.40;2.20;;;15.90;1.00;;;;;;4995349;28;20447;-67
2021/05/29 08:17:15;;;;;;;57.50;2.17;;;16.00;1.00;;;;;;4995053;28;21046;-67
2021/05/29 08:19:42;;;;;;;57.27;2.10;;;16.10;1.00;;;;;;4995354;28;20455;-67
2021/05/29 08:22:08;;;;;;;57.63;2.20;;;16.20;1.00;;;;;;4995321;28;20843;-67
2021/05/29 08:24:34;;;;;;;57.27;2.07;;;16.30;1.00;;;;;;4995121;28;20543;-67
2021/05/29 08:27:01;;;;;;;57.40;2.37;;;16.50;1.00;;;;;;4995072;28;20505;-67
2021/05/29 08:29:28;;;;;;;57.47;2.10;;;16.50;1.00;;;;;;4995319;28;20485;-67
2021/05/29 08:31:54;;;;;;;57.33;2.10;;;16.50;1.00;;;;;;4995422;28;20595;-65
2021/05/29 08:34:21;;;;;;;57.17;2.03;;;16.70;1.00;;;;;;4995214;28;20488;-67
2021/05/29 08:36:47;;;;;;;57.47;2.40;;;16.80;1.00;;;;;;4994786;28;20536;-67
2021/05/29 08:39:14;;;;;;;57.40;2.40;;;16.90;1.00;;;;;;4994763;28;20468;-67
2021/05/29 08:41:41;;;;;;;57.40;2.20;;;17.10;1.00;;;;;;4994896;28;20453;-65
2021/05/29 08:44:09;;;;;;;57.87;2.40;;;17.30;1.00;;;;;;4994038;28;20576;-65
2021/05/29 08:46:36;;;;;;;57.07;2.20;;;17.40;1.00;;;;;;4994640;28;20872;-65
2021/05/29 08:49:03;;;;;;;57.40;2.10;;;17.50;1.00;;;;;;4994829;28;20580;-67
2021/05/29 08:51:30;;;;;;;57.23;2.07;;;17.50;1.00;;;;;;4994856;28;20961;-67
2021/05/29 08:53:57;;;;;;;56.97;2.10;;;17.70;1.00;;;;;;4994623;28;20446;-66
2021/05/29 08:56:25;;;;;;;57.37;2.10;;;17.90;1.00;;;;;;4994309;28;20548;-65
2021/05/29 08:58:51;;;;;;;57.17;2.10;;;18.10;1.00;;;;;;4994523;28;20495;-67
2021/05/29 09:01:18;;;;;;;56.87;2.10;;;18.30;1.00;;;;;;4994585;28;20947;-68
2021/05/29 09:03:48;;;;;;;57.17;2.20;;;18.40;1.00;;;;;;4994438;28;20497;-67
2021/05/29 09:06:17;;;;;;;57.50;2.20;;;18.50;1.00;;;;;;4994389;28;20481;-67
2021/05/29 09:08:52;;;;;;;57.53;2.10;;;18.60;1.00;;;;;;4994659;28;20473;-67
2021/05/29 09:11:44;;;;;;;56.97;2.00;;;18.70;1.00;;;;;;4994437;28;20449;-66
2021/05/29 09:14:34;;;;;;;57.27;2.00;;;18.80;1.00;;;;;;4994294;28;20498;-67
2021/05/29 09:17:10;;;;;;;57.17;2.03;;;19.10;1.00;;;;;;4994173;28;20483;-67
2021/05/29 09:20:06;;;;;;;57.40;1.97;;;19.30;1.00;;;;;;4994355;28;20889;-67
2021/05/29 09:22:35;;;;;;;57.30;2.07;;;19.50;1.00;;;;;;4971010;28;20622;-67
2021/05/29 09:25:09;;;;;;;57.23;2.00;;;19.80;1.00;;;;;;4994120;28;20478;-66
2021/05/29 09:27:37;;;;;;;57.27;2.00;;;20.00;1.00;;;;;;4994016;28;20501;-66
2021/05/29 09:30:06;;;;;;;57.53;2.20;;;20.10;1.00;;;;;;4994164;28;20890;-67
2021/05/29 09:32:34;;;;;;;57.27;2.03;;;20.20;1.00;;;;;;4994093;28;20455;-67
2021/05/29 09:35:07;;;;;;;57.13;2.07;;;20.40;1.00;;;;;;4993968;28;20797;-66
2021/05/29 09:37:33;;;;;;;56.97;2.03;;;20.50;1.00;;;;;;4993528;28;20477;-67
2021/05/29 09:40:02;;;;;;;57.27;2.10;;;20.80;1.00;;;;;;4993699;28;20489;-67
2021/05/29 09:42:32;;;;;;;57.40;2.10;;;20.90;1.00;;;;;;4993925;28;20810;-66
2021/05/29 09:45:17;;;;;;;57.17;2.00;;;20.80;1.00;;;;;;4993595;28;20483;-66
2021/05/29 09:47:44;;;;;;;57.30;2.10;;;20.50;1.00;;;;;;4993488;28;20474;-67
2021/05/29 09:50:11;;;;;;;57.17;2.00;;;20.20;1.00;;;;;;4993459;28;20446;-67
2021/05/29 09:52:39;;;;;;;56.83;2.10;;;20.00;1.00;;;;;;4993787;28;20458;-67
2021/05/29 09:55:08;;;;;;;56.87;2.10;;;19.70;1.00;;;;;;4992808;28;20448;-66
2021/05/29 09:57:50;;;;;;;57.27;2.10;;;19.70;1.00;;;;;;4993060;28;20552;-67
2021/05/29 10:00:17;;;;;;;57.17;2.00;;;20.20;1.00;;;;;;4993409;28;20460;-67
2021/05/29 10:02:57;;;;;;;56.87;2.00;;;20.80;1.00;;;;;;4993340;28;20455;-67
2021/05/29 10:05:28;;;;;;;57.23;3.33;;;21.30;1.00;;;;;;4993652;28;20485;-66
2021/05/29 10:07:55;;;;;;;57.07;1.90;;;22.00;1.00;;;;;;4993134;28;20505;-67
2021/05/29 10:10:22;;;;;;;57.03;2.20;;;;;;;;;;4993236;28;20455;-66
2021/05/29 10:12:48;;;;;;;57.30;1.90;;;22.90;1.00;;;;;;4993479;28;20611;-66
2021/05/29 10:15:16;;;;;;;57.13;1.90;;;22.80;1.00;;;;;;4993129;28;20544;-66
2021/05/29 10:17:44;;;;;;;57.17;2.03;;;22.50;1.00;;;;;;4993003;28;20477;-67
2021/05/29 10:20:12;;;;;;;57.17;2.30;;;22.00;1.00;;;;;;4993171;28;20540;-67
2021/05/29 10:22:39;;;;;;;57.50;2.03;;;21.60;1.00;;;;;;4993219;28;20455;-66
2021/05/29 10:25:10;;;;;;;57.33;2.00;;;21.30;1.00;;;;;;4992928;28;20869;-67
2021/05/29 10:27:37;;;;;;;57.13;2.20;;;21.60;1.00;;;;;;4992718;28;20528;-67
2021/05/29 10:30:05;;;;;;;57.40;2.10;;;21.70;1.00;;;;;;4992966;28;20457;-67
2021/05/29 10:32:32;;;;;;;56.77;1.90;;;22.50;1.00;;;;;;4993005;28;20582;-66
2021/05/29 10:35:01;;;;;;;57.17;2.13;;;23.20;1.00;;;;;;4992809;28;20454;-68
2021/05/29 10:37:33;;;;;;;57.37;2.20;;;24.30;1.00;;;;;;4992631;28;20605;-67
2021/05/29 10:40:21;;;;;;;58.67;3.80;;;25.80;1.00;;;;;;4992597;28;20487;-68
2021/05/29 10:43:02;;;;;;;57.17;1.80;;;27.60;1.00;;;;;;4992934;28;20486;-67
2021/05/29 10:45:28;;;;;;;57.13;2.00;;;29.00;1.00;;;;;;4992611;28;21050;-67
2021/05/29 10:48:06;;;;;;;57.13;1.80;;;30.00;1.00;;;;;;4992461;28;20560;-67
2021/05/29 10:50:56;;;;;;;56.97;1.80;;;31.00;1.00;;;;;;4992465;28;20493;-68
2021/05/29 10:53:52;;;;;;;56.67;1.80;;;31.70;1.00;;;;;;4992749;28;20487;-67
2021/05/29 10:56:40;;;;;;;56.77;1.70;;;32.60;1.00;;;;;;4992412;28;20450;-67
2021/05/29 10:59:12;;;;;;;56.83;1.67;;;33.00;1.00;;;;;;4992558;28;20550;-67
2021/05/29 11:02:05;;;;;;;56.90;1.70;;;33.40;1.00;;;;;;4992570;28;20537;-67
2021/05/29 11:04:32;;;;;;;56.67;1.70;;;33.40;1.00;;;;;;4992354;28;20482;-67
2021/05/29 11:07:01;;;;;;;56.63;1.80;;;33.70;1.00;;;;;;4991701;28;20510;-68
2021/05/29 11:09:49;;;;;;;57.00;1.90;;;34.10;1.00;;;;;;4992734;28;20459;-67
2021/05/29 11:12:16;;;;;;;56.83;1.80;;;34.20;1.00;;;;;;4992527;28;20534;-67
2021/05/29 11:14:52;;;;;;;56.87;1.90;;;34.40;1.00;;;;;;4992596;28;20534;-67
2021/05/29 11:17:19;;;;;;;57.00;1.87;;;34.90;1.00;;;;;;4992469;28;20474;-68
2021/05/29 11:20:15;;;;;;;56.83;1.80;;;35.20;1.00;;;;;;4992180;28;20807;-68
2021/05/29 11:22:47;;;;;;;56.57;1.67;;;35.50;1.00;;;;;;4992291;28;20451;-68
2021/05/29 11:25:16;;;;;;;56.73;1.83;;;34.20;1.00;;;;;;4992200;28;20574;-67
2021/05/29 11:27:45;;;;;;;56.83;1.70;;;32.40;1.00;;;;;;4992002;28;20521;-67
2021/05/29 11:30:14;;;;;;;56.67;1.80;;;32.00;1.00;;;;;;4992110;28;20460;-67
2021/05/29 11:32:54;;;;;;;58.80;3.90;;;32.70;1.00;;;;;;4992412;28;20525;-67
2021/05/29 11:35:38;;;;;;;56.43;1.60;;;33.50;1.00;;;;;;4992195;28;20451;-66
2021/05/29 11:38:13;;;;;;;56.70;1.60;;;34.10;1.00;;;;;;4992009;28;20471;-67
2021/05/29 11:40:45;;;;;;;56.47;1.67;;;34.50;1.00;;;;;;4992137;28;20977;-68
2021/05/29 11:43:13;;;;;;;56.50;1.60;;;35.20;1.00;;;;;;4992194;28;20819;-68
2021/05/29 11:45:41;;;;;;;56.57;1.70;;;35.70;1.00;;;;;;4992283;28;20871;-67
2021/05/29 11:48:08;;;;;;;56.67;1.63;;;36.10;1.00;;;;;;4991836;28;20473;-67
2021/05/29 11:50:40;;;;;;;56.67;1.60;;;36.30;1.00;;;;;;4992099;28;20927;-67
2021/05/29 11:53:07;;;;;;;56.50;1.67;;;36.10;1.00;;;;;;4992031;28;20458;-67
2021/05/29 11:55:52;;;;;;;56.47;1.73;;;34.60;1.00;;;;;;4992236;28;20527;-67
2021/05/29 11:58:20;;;;;;;56.73;2.33;;;34.20;1.00;;;;;;4991824;28;20467;-68
2021/05/29 12:00:57;;;;;;;56.53;1.77;;;34.70;1.00;;;;;;4991966;28;20546;-67
2021/05/29 12:03:37;;;;;;;56.60;1.60;;;35.20;1.00;;;;;;4991908;28;20457;-67
2021/05/29 12:06:04;;;;;;;57.70;1.90;;;35.30;1.00;;;;;;4992341;28;20534;-67
2021/05/29 12:08:31;;;;;;;56.67;1.90;;;35.50;1.00;;;;;;4991617;28;20514;-68
2021/05/29 12:10:58;;;;;;;56.57;1.60;;;36.10;1.00;;;;;;4991876;28;20534;-68
2021/05/29 12:13:27;;;;;;;56.57;1.80;;;36.20;1.00;;;;;;4991825;28;20875;-68
2021/05/29 12:15:58;;;;;;;56.60;1.70;;;35.70;1.00;;;;;;4991650;28;20569;-67
2021/05/29 12:18:25;;;;;;;56.43;1.60;;;34.20;1.00;;;;;;4992049;28;20471;-67
2021/05/29 12:20:56;;;;;;;56.80;1.77;;;32.90;1.00;;;;;;4995332;28;20490;-68
2021/05/29 12:23:22;;;;;;;56.70;1.90;;;33.10;1.00;;;;;;4995400;28;20453;-67
2021/05/29 12:25:49;;;;;;;56.70;1.80;;;33.90;1.00;;;;;;4995319;28;20542;-67
2021/05/29 12:28:15;;;;;;;56.53;1.73;;;34.60;1.00;;;;;;4994901;28;20463;-67
2021/05/29 12:30:43;;;;;;;56.70;1.73;;;35.00;1.00;;;;;;4995064;28;20525;-67
2021/05/29 12:33:20;;;;;;;56.60;1.50;;;35.70;1.00;;;;;;4995330;28;20447;-67
2021/05/29 12:35:46;;;;;;;56.53;1.70;;;36.20;1.00;;;;;;4995045;28;20490;-68
2021/05/29 12:38:14;;;;;;;56.57;1.70;;;36.50;1.00;;;;;;4994846;28;20610;-67
2021/05/29 12:40:54;;;;;;;56.37;1.60;;;36.90;1.00;;;;;;4995143;28;20530;-67
2021/05/29 12:43:20;;;;;;;56.47;1.67;;;37.00;1.00;;;;;;4995150;28;20457;-67
2021/05/29 12:45:48;;;;;;;56.47;1.63;;;35.30;1.00;;;;;;4994762;28;20475;-67
2021/05/29 12:48:14;;;;;;;56.57;1.70;;;33.40;1.00;;;;;;4994618;28;20557;-67
2021/05/29 12:53:23;;;;;;;56.47;1.70;;;32.70;1.00;;;;;;4994476;28;20474;-67
2021/05/29 12:56:10;;;;;;;56.77;1.80;;;33.90;1.00;;;;;;4994833;28;20544;-68
2021/05/29 12:58:36;;;;;;;56.43;1.60;;;34.90;1.00;;;;;;4994625;28;20476;-68
2021/05/29 13:09:31;;;;;;;56.77;1.70;;;32.90;1.00;;;;;;4994540;28;20458;-67
2021/05/29 13:12:07;;;;;;;57.13;1.90;;;31.10;1.00;;;;;;4994448;28;20527;-67
2021/05/29 13:14:34;;;;;;;57.10;1.80;;;30.20;1.00;;;;;;4994425;28;21087;-67